createdAt,value
2022-08-28T00:02:14.113Z,0.50
2022-08-28T00:04:44.208Z,0.10
2022-08-28T00:07:14.127Z,0.00
2022-08-28T00:09:42.481Z,0.38
2022-08-28T00:12:12.412Z,0.22
2022-08-28T00:14:41.136Z,0.90
2022-08-28T00:17:09.662Z,3.53
2022-08-28T00:19:38.906Z,0.40
2022-08-28T00:22:07.764Z,0.43
2022-08-28T00:24:37.597Z,0.00
2022-08-28T00:27:35.642Z,0.10
2022-08-28T00:30:04.119Z,0.43
2022-08-28T00:32:34.990Z,0.65
2022-08-28T00:35:03.534Z,0.55
2022-08-28T00:37:31.932Z,0.20
2022-08-28T00:40:01.699Z,0.80
2022-08-28T00:42:30.394Z,0.22
2022-08-28T00:44:58.812Z,0.20
2022-08-28T00:47:28.267Z,1.85
2022-08-28T00:49:57.246Z,0.55
2022-08-28T00:52:25.505Z,0.85
2022-08-28T00:54:59.477Z,0.15
2022-08-28T00:57:30.546Z,0.30
2022-08-28T00:59:59.030Z,0.22
2022-08-28T01:02:27.712Z,0.85
2022-08-28T01:04:56.811Z,0.35
2022-08-28T01:07:25.241Z,0.35
2022-08-28T01:09:55.328Z,0.10
2022-08-28T01:12:25.008Z,1.30
2022-08-28T01:14:58.577Z,0.00
2022-08-28T01:17:28.742Z,0.20
2022-08-28T01:19:59.492Z,0.38
2022-08-28T01:22:31.225Z,0.10
2022-08-28T01:25:03.339Z,0.43
2022-08-28T01:27:31.865Z,0.22
2022-08-28T01:30:00.249Z,0.63
2022-08-28T01:32:32.041Z,0.43
2022-08-28T01:35:00.932Z,1.60
2022-08-28T01:37:29.310Z,0.20
2022-08-28T01:39:57.795Z,0.80
2022-08-28T01:42:27.601Z,0.55
2022-08-28T01:44:56.069Z,0.10
2022-08-28T01:47:24.602Z,0.52
2022-08-28T01:49:52.876Z,0.30
2022-08-28T01:52:24.143Z,0.50
2022-08-28T01:54:54.938Z,0.75
2022-08-28T01:57:27.336Z,1.10
2022-08-28T01:59:55.703Z,0.75
2022-08-28T02:02:24.125Z,0.98
2022-08-28T02:04:53.239Z,0.40
2022-08-28T02:07:21.584Z,3.40
2022-08-28T02:09:49.927Z,0.20
2022-08-28T02:12:18.513Z,0.20
2022-08-28T02:14:48.307Z,0.93
2022-08-28T02:17:16.719Z,0.82
2022-08-28T02:19:45.040Z,0.35
2022-08-28T02:22:13.528Z,0.60
2022-08-28T02:24:42.066Z,0.40
2022-08-28T02:27:10.463Z,0.65
2022-08-28T02:29:39.254Z,1.30
2022-08-28T02:32:08.962Z,0.80
2022-08-28T02:34:37.504Z,0.38
2022-08-28T02:37:08.765Z,0.28
2022-08-28T02:39:37.272Z,0.50
2022-08-28T02:42:05.848Z,1.02
2022-08-28T02:44:34.986Z,0.22
2022-08-28T02:47:03.391Z,0.20
2022-08-28T02:49:36.397Z,1.00
2022-08-28T02:52:06.836Z,0.70
2022-08-28T02:54:35.729Z,0.68
2022-08-28T02:57:04.078Z,0.75
2022-08-28T02:59:32.391Z,0.93
2022-08-28T03:02:03.966Z,1.10
2022-08-28T03:04:33.662Z,0.10
2022-08-28T03:07:01.997Z,1.13
2022-08-28T03:09:30.347Z,0.88
2022-08-28T03:11:58.670Z,0.85
2022-08-28T03:14:27.761Z,0.55
2022-08-28T03:16:56.373Z,0.73
2022-08-28T03:19:25.107Z,0.22
2022-08-28T03:21:56.820Z,0.85
2022-08-28T03:24:25.220Z,0.30
2022-08-28T03:26:53.670Z,0.28
2022-08-28T03:29:22.027Z,0.50
2022-08-28T03:31:50.588Z,0.88
2022-08-28T03:34:18.879Z,0.45
2022-08-28T03:36:47.188Z,0.75
2022-08-28T03:39:16.877Z,0.40
2022-08-28T03:41:45.242Z,0.90
2022-08-28T03:44:13.605Z,0.55
2022-08-28T03:46:42.002Z,0.90
2022-08-28T03:49:10.406Z,0.35
2022-08-28T03:51:38.762Z,0.77
2022-08-28T03:54:07.161Z,0.75
2022-08-28T03:56:36.978Z,1.17
2022-08-28T03:59:06.276Z,0.77
2022-08-28T04:01:34.768Z,0.50
2022-08-28T04:04:03.158Z,0.30
2022-08-28T04:06:31.562Z,1.20
2022-08-28T04:09:00.509Z,0.25
2022-08-28T04:11:29.089Z,0.30
2022-08-28T04:13:58.966Z,0.22
2022-08-28T04:16:27.929Z,0.52
2022-08-28T04:18:56.324Z,0.95
2022-08-28T04:21:26.113Z,1.17
2022-08-28T04:23:54.923Z,0.52
2022-08-28T04:26:25.334Z,0.57
2022-08-28T04:28:55.100Z,0.35
2022-08-28T04:31:31.806Z,1.45
2022-08-28T04:34:01.239Z,0.68
2022-08-28T04:36:29.949Z,0.32
2022-08-28T04:38:58.822Z,2.58
2022-08-28T04:41:27.649Z,1.27
2022-08-28T04:43:57.448Z,0.85
2022-08-28T04:46:31.008Z,0.70
2022-08-28T04:48:59.916Z,0.90
2022-08-28T04:51:28.744Z,2.28
2022-08-28T04:53:57.112Z,1.25
2022-08-28T04:56:26.513Z,0.57
2022-08-28T04:58:54.871Z,1.23
2022-08-28T05:01:25.323Z,1.00
2022-08-28T05:03:57.512Z,3.30
2022-08-28T05:06:28.190Z,0.60
2022-08-28T05:08:56.979Z,1.77
2022-08-28T05:11:33.277Z,1.50
2022-08-28T05:14:04.385Z,1.05
2022-08-28T05:16:33.471Z,1.50
2022-08-28T05:19:03.702Z,1.55
2022-08-28T05:21:32.062Z,2.05
2022-08-28T05:24:00.470Z,1.92
2022-08-28T05:26:29.974Z,1.05
2022-08-28T05:28:59.230Z,1.13
2022-08-28T05:31:28.833Z,0.95
2022-08-28T05:33:57.479Z,1.42
2022-08-28T05:36:32.810Z,1.30
2022-08-28T05:39:02.423Z,0.40
2022-08-28T05:41:31.386Z,2.15
2022-08-28T05:44:00.156Z,0.75
2022-08-28T05:46:28.638Z,1.42
2022-08-28T05:48:57.576Z,2.55
2022-08-28T05:51:28.070Z,1.63
2022-08-28T05:53:57.662Z,2.13
2022-08-28T05:56:29.581Z,2.90
2022-08-28T05:58:58.246Z,1.83
2022-08-28T06:01:28.640Z,1.80
2022-08-28T06:03:58.519Z,2.38
2022-08-28T06:06:29.358Z,1.75
2022-08-28T06:08:59.311Z,2.47
2022-08-28T06:11:30.393Z,2.03
2022-08-28T06:14:01.507Z,1.80
2022-08-28T06:16:30.585Z,1.60
2022-08-28T06:18:59.075Z,1.52
2022-08-28T06:21:28.945Z,1.98
2022-08-28T06:23:57.469Z,3.20
2022-08-28T06:26:25.938Z,0.98
2022-08-28T06:28:54.251Z,2.42
2022-08-28T06:31:25.879Z,2.05
2022-08-28T06:33:56.039Z,2.05
2022-08-28T06:36:24.723Z,3.65
2022-08-28T06:38:55.351Z,2.15
2022-08-28T06:41:23.838Z,4.78
2022-08-28T06:43:52.336Z,1.95
2022-08-28T06:46:21.768Z,3.20
2022-08-28T06:48:50.213Z,2.70
2022-08-28T06:51:18.913Z,2.17
2022-08-28T06:53:47.822Z,4.53
2022-08-28T06:56:26.139Z,3.00
2022-08-28T06:58:56.577Z,3.15
2022-08-28T07:01:27.083Z,2.90
2022-08-28T07:03:56.864Z,3.90
2022-08-28T07:06:25.574Z,5.43
2022-08-28T07:08:53.985Z,3.20
2022-08-28T07:11:26.318Z,2.92
2022-08-28T07:13:55.375Z,3.60
2022-08-28T07:16:25.017Z,3.65
2022-08-28T07:18:53.820Z,4.47
2022-08-28T07:21:22.212Z,4.60
2022-08-28T07:23:50.529Z,5.55
2022-08-28T07:26:20.229Z,3.28
2022-08-28T07:28:50.013Z,2.45
2022-08-28T07:31:21.081Z,2.95
2022-08-28T07:33:53.871Z,2.03
2022-08-28T07:36:29.873Z,2.70
2022-08-28T07:38:59.030Z,4.63
2022-08-28T07:41:28.462Z,5.07
2022-08-28T07:44:15.804Z,3.95
2022-08-28T07:46:44.593Z,3.85
2022-08-28T07:49:15.494Z,2.88
2022-08-28T07:51:43.872Z,4.30
2022-08-28T07:54:18.262Z,2.83
2022-08-28T07:56:46.977Z,2.95
2022-08-28T07:59:17.532Z,4.03
2022-08-28T08:01:50.074Z,3.65
2022-08-28T08:04:19.893Z,4.85
2022-08-28T08:06:48.468Z,3.20
2022-08-28T08:09:18.019Z,3.05
2022-08-28T08:11:46.801Z,3.65
2022-08-28T08:14:15.451Z,2.95
2022-08-28T08:16:46.037Z,2.90
2022-08-28T08:19:15.081Z,5.63
2022-08-28T08:21:44.955Z,3.63
2022-08-28T08:24:19.683Z,4.90
2022-08-28T08:26:56.547Z,7.60
2022-08-28T08:29:29.426Z,3.75
2022-08-28T08:32:02.753Z,4.78
2022-08-28T08:34:31.112Z,3.40
2022-08-28T08:36:59.507Z,5.43
2022-08-28T08:39:27.861Z,5.07
2022-08-28T08:41:57.552Z,2.72
2022-08-28T08:44:33.985Z,5.47
2022-08-28T08:47:14.034Z,3.70
2022-08-28T08:49:45.785Z,4.43
2022-08-28T08:52:29.276Z,4.00
2022-08-28T08:55:06.025Z,8.45
2022-08-28T08:57:35.028Z,5.13
2022-08-28T09:00:04.031Z,3.42
2022-08-28T09:02:38.781Z,5.03
2022-08-28T09:05:09.092Z,3.85
2022-08-28T09:07:39.100Z,3.92
2022-08-28T09:10:10.974Z,3.85
2022-08-28T09:12:45.145Z,7.13
2022-08-28T09:15:15.885Z,4.93
2022-08-28T09:17:47.995Z,2.97
2022-08-28T09:20:17.281Z,3.78
2022-08-28T09:22:46.645Z,3.20
2022-08-28T09:25:35.115Z,3.22
2022-08-28T09:28:08.249Z,4.70
2022-08-28T09:30:44.227Z,4.60
2022-08-28T09:33:13.969Z,3.30
2022-08-28T09:35:42.328Z,4.85
2022-08-28T09:38:18.983Z,5.95
2022-08-28T09:41:05.018Z,4.82
2022-08-28T09:43:33.660Z,3.78
2022-08-28T09:46:03.156Z,4.43
2022-08-28T09:48:37.622Z,3.75
2022-08-28T09:51:06.894Z,4.05
2022-08-28T09:53:37.083Z,5.18
2022-08-28T09:56:26.521Z,4.60
2022-08-28T09:58:57.850Z,8.68
2022-08-28T10:01:38.531Z,3.00
2022-08-28T10:04:15.291Z,5.40
2022-08-28T10:06:46.264Z,4.82
2022-08-28T10:09:20.696Z,5.65
2022-08-28T10:11:55.866Z,5.82
2022-08-28T10:14:33.284Z,5.00
2022-08-28T10:17:07.680Z,5.07
2022-08-28T10:19:44.155Z,4.75
2022-08-28T10:22:18.248Z,3.97
2022-08-28T10:24:57.657Z,3.83
2022-08-28T10:28:20.977Z,3.75
2022-08-28T10:30:55.103Z,3.72
2022-08-28T10:33:31.012Z,2.90
2022-08-28T10:36:08.107Z,5.88
2022-08-28T10:39:03.059Z,3.95
2022-08-28T10:41:43.182Z,4.95
2022-08-28T10:44:13.357Z,4.03
2022-08-28T10:46:44.572Z,5.45
2022-08-28T10:49:16.861Z,5.72
2022-08-28T10:51:48.678Z,7.80
2022-08-28T10:54:24.055Z,4.47
2022-08-28T10:56:56.572Z,6.97
2022-08-28T10:59:25.702Z,6.30
2022-08-28T11:01:54.384Z,9.75
2022-08-28T11:04:25.609Z,4.80
2022-08-28T11:06:57.410Z,5.00
2022-08-28T11:09:31.270Z,4.88
2022-08-28T11:12:02.235Z,3.90
2022-08-28T11:14:32.629Z,5.40
2022-08-28T11:17:02.763Z,7.70
2022-08-28T11:19:52.445Z,4.28
2022-08-28T11:22:23.606Z,3.58
2022-08-28T11:25:01.760Z,7.07
2022-08-28T11:27:39.670Z,5.25
2022-08-28T11:30:29.115Z,5.70
2022-08-28T11:33:02.217Z,5.85
2022-08-28T11:35:48.350Z,5.97
2022-08-28T11:38:35.434Z,4.82
2022-08-28T11:41:15.259Z,5.38
2022-08-28T11:43:44.489Z,7.32
2022-08-28T11:46:15.021Z,6.53
2022-08-28T11:48:50.794Z,4.22
2022-08-28T11:51:36.980Z,7.32
2022-08-28T11:54:11.233Z,5.70
2022-08-28T11:56:46.469Z,8.48
2022-08-28T11:59:35.848Z,4.80
2022-08-28T12:02:23.163Z,4.93
2022-08-28T12:04:51.733Z,7.80
2022-08-28T12:07:22.116Z,5.30
2022-08-28T12:09:51.256Z,5.60
2022-08-28T12:12:38.045Z,5.22
2022-08-28T12:15:10.142Z,5.32
2022-08-28T12:17:57.248Z,3.95
2022-08-28T12:20:46.702Z,7.05
2022-08-28T12:23:45.124Z,6.07
2022-08-28T12:26:20.131Z,4.45
2022-08-28T12:31:47.941Z,4.18
2022-08-28T12:34:21.736Z,5.70
2022-08-28T12:36:57.157Z,6.53
2022-08-28T12:39:25.780Z,5.80
2022-08-28T12:41:54.221Z,7.85
2022-08-28T12:44:25.657Z,7.63
2022-08-28T12:46:56.543Z,4.57
2022-08-28T12:49:30.313Z,5.13
2022-08-28T12:52:16.694Z,6.95
2022-08-28T12:54:45.854Z,5.55
2022-08-28T12:57:15.872Z,6.70
2022-08-28T12:59:44.952Z,4.72
2022-08-28T13:02:20.738Z,2.35
2022-08-28T13:04:54.246Z,2.80
2022-08-28T13:07:28.089Z,9.57
2022-08-28T13:09:58.099Z,3.47
2022-08-28T13:12:51.705Z,4.63
2022-08-28T13:15:37.354Z,5.38
2022-08-28T13:18:08.387Z,8.35
2022-08-28T13:20:37.916Z,6.22
2022-08-28T13:23:06.669Z,3.25
2022-08-28T13:25:36.393Z,6.20
2022-08-28T13:28:05.650Z,4.68
2022-08-28T13:30:35.099Z,4.40
2022-08-28T13:33:04.657Z,7.07
2022-08-28T13:35:36.536Z,3.47
2022-08-28T13:38:08.265Z,4.45
2022-08-28T13:40:58.680Z,6.13
2022-08-28T13:43:29.335Z,5.35
2022-08-28T13:45:58.003Z,5.82
2022-08-28T13:48:27.887Z,4.57
2022-08-28T13:51:00.130Z,6.10
2022-08-28T13:53:28.846Z,4.10
2022-08-28T13:55:58.452Z,3.38
2022-08-28T13:58:27.076Z,4.50
2022-08-28T14:00:56.318Z,4.15
2022-08-28T14:03:35.814Z,4.63
2022-08-28T14:06:08.095Z,5.90
2022-08-28T14:08:36.924Z,4.68
2022-08-28T14:11:08.300Z,7.40
2022-08-28T14:13:47.360Z,8.73
2022-08-28T14:16:24.316Z,4.68
2022-08-28T14:18:52.901Z,4.70
2022-08-28T14:21:24.792Z,6.82
2022-08-28T14:23:53.485Z,6.22
2022-08-28T14:26:22.595Z,5.47
2022-08-28T14:28:51.081Z,5.40
2022-08-28T14:31:19.782Z,4.25
2022-08-28T14:33:48.208Z,8.77
2022-08-28T14:36:17.159Z,5.35
2022-08-28T14:38:46.876Z,5.15
2022-08-28T14:41:15.476Z,6.60
2022-08-28T14:43:43.908Z,6.53
2022-08-28T14:46:16.474Z,5.80
2022-08-28T14:48:45.024Z,3.40
2022-08-28T14:51:13.545Z,1.75
2022-08-28T14:53:42.036Z,1.08
2022-08-28T14:56:13.006Z,2.33
2022-08-28T14:58:41.555Z,2.45
2022-08-28T15:01:10.101Z,1.42
2022-08-28T15:03:38.693Z,1.48
2022-08-28T15:06:11.421Z,2.97
2022-08-28T15:08:40.005Z,1.85
2022-08-28T15:11:09.149Z,1.02
2022-08-28T15:13:39.133Z,1.60
2022-08-28T15:16:15.689Z,2.58
2022-08-28T15:18:45.729Z,3.17
2022-08-28T15:21:17.977Z,1.67
2022-08-28T15:23:46.539Z,3.40
2022-08-28T15:26:15.990Z,4.13
2022-08-28T15:28:45.944Z,1.70
2022-08-28T15:31:15.893Z,3.85
2022-08-28T15:33:45.782Z,2.35
2022-08-28T15:36:14.521Z,2.90
2022-08-28T15:39:02.942Z,1.70
2022-08-28T15:41:31.786Z,12.13
2022-08-28T15:44:03.687Z,3.20
2022-08-28T15:46:33.750Z,3.15
2022-08-28T15:49:03.038Z,2.25
2022-08-28T15:51:32.375Z,3.17
2022-08-28T15:54:02.291Z,1.75
2022-08-28T15:56:30.706Z,1.77
2022-08-28T15:58:59.142Z,4.47
2022-08-28T16:01:28.909Z,4.03
2022-08-28T16:03:57.361Z,3.35
2022-08-28T16:06:26.938Z,2.28
2022-08-28T16:08:55.486Z,1.30
2022-08-28T16:11:24.435Z,2.60
2022-08-28T16:13:53.612Z,5.82
2022-08-28T16:16:22.510Z,3.03
2022-08-28T16:18:52.319Z,2.22
2022-08-28T16:21:21.059Z,2.75
2022-08-28T16:23:50.283Z,2.42
2022-08-28T16:26:18.942Z,3.55
2022-08-28T16:28:47.383Z,2.25
2022-08-28T16:31:19.012Z,2.35
2022-08-28T16:33:49.281Z,2.53
2022-08-28T16:36:23.701Z,4.20
2022-08-28T16:38:52.938Z,3.27
2022-08-28T16:41:32.898Z,2.60
2022-08-28T16:44:01.460Z,3.92
2022-08-28T16:46:30.138Z,2.28
2022-08-28T16:48:59.562Z,4.32
2022-08-28T16:51:29.872Z,2.65
2022-08-28T16:53:59.097Z,3.53
2022-08-28T16:56:27.674Z,2.63
2022-08-28T16:58:57.071Z,1.83
2022-08-28T17:01:25.651Z,1.70
2022-08-28T17:03:54.643Z,2.72
2022-08-28T17:06:24.583Z,2.53
2022-08-28T17:08:57.103Z,2.35
2022-08-28T17:11:26.094Z,2.58
2022-08-28T17:13:54.548Z,3.33
2022-08-28T17:16:23.743Z,1.83
2022-08-28T17:18:53.177Z,2.25
2022-08-28T17:21:39.309Z,1.85
2022-08-28T17:24:09.443Z,3.00
2022-08-28T17:26:38.054Z,4.10
2022-08-28T17:29:06.695Z,3.95
2022-08-28T17:31:35.259Z,2.95
2022-08-28T17:34:03.840Z,2.60
2022-08-28T17:36:34.317Z,4.38
2022-08-28T17:39:03.684Z,2.75
2022-08-28T17:41:34.163Z,2.25
2022-08-28T17:44:02.762Z,2.08
2022-08-28T17:46:35.403Z,4.35
2022-08-28T17:51:42.892Z,3.67
2022-08-28T17:54:12.980Z,2.53
2022-08-28T17:56:42.985Z,2.78
2022-08-28T17:59:11.686Z,2.30
2022-08-28T18:01:41.114Z,8.10
2022-08-28T18:04:10.469Z,2.42
2022-08-28T18:06:39.426Z,4.50
2022-08-28T18:09:08.848Z,2.58
2022-08-28T18:11:37.489Z,1.65
2022-08-28T18:14:07.724Z,3.35
2022-08-28T18:16:38.732Z,2.63
2022-08-28T18:19:08.175Z,3.08
2022-08-28T18:21:37.122Z,2.97
2022-08-28T18:24:05.821Z,1.98
2022-08-28T18:26:34.605Z,2.03
2022-08-28T18:29:03.130Z,3.38
2022-08-28T18:31:33.156Z,4.05
2022-08-28T18:34:11.294Z,2.85
2022-08-28T18:36:41.665Z,2.67
2022-08-28T18:39:10.805Z,2.83
2022-08-28T18:41:43.149Z,3.80
2022-08-28T18:44:12.990Z,2.40
2022-08-28T18:46:43.007Z,2.58
2022-08-28T18:49:11.930Z,4.38
2022-08-28T18:51:41.783Z,3.13
2022-08-28T18:54:10.425Z,2.83
2022-08-28T18:56:41.344Z,4.13
2022-08-28T18:59:10.013Z,2.60
2022-08-28T19:01:38.752Z,2.45
2022-08-28T19:04:09.814Z,2.90
2022-08-28T19:06:38.331Z,5.78
2022-08-28T19:09:06.953Z,2.40
2022-08-28T19:11:36.313Z,3.47
2022-08-28T19:14:05.924Z,3.90
2022-08-28T19:16:40.155Z,3.55
2022-08-28T19:19:11.127Z,2.78
2022-08-28T19:21:39.774Z,3.67
2022-08-28T19:24:10.755Z,2.92
2022-08-28T19:26:39.731Z,2.15
2022-08-28T19:29:08.890Z,2.67
2022-08-28T19:31:46.405Z,6.18
2022-08-28T19:34:28.575Z,4.15
2022-08-28T19:37:06.519Z,1.88
2022-08-28T19:39:35.322Z,3.72
2022-08-28T19:42:04.005Z,2.40
2022-08-28T19:44:32.561Z,4.47
2022-08-28T19:47:01.196Z,3.60
2022-08-28T19:49:31.264Z,3.53
2022-08-28T19:51:59.903Z,3.83
2022-08-28T19:54:28.688Z,4.65
2022-08-28T19:56:57.211Z,1.55
2022-08-28T19:59:27.205Z,4.15
2022-08-28T20:01:56.167Z,2.20
2022-08-28T20:04:25.691Z,3.05
2022-08-28T20:06:55.661Z,4.22
2022-08-28T20:09:24.605Z,2.03
2022-08-28T20:11:53.325Z,4.82
2022-08-28T20:14:22.330Z,2.88
2022-08-28T20:16:52.965Z,2.45
2022-08-28T20:19:22.649Z,4.63
2022-08-28T20:21:52.207Z,2.83
2022-08-28T20:24:24.498Z,3.72
2022-08-28T20:26:54.059Z,2.13
2022-08-28T20:29:24.236Z,4.05
2022-08-28T20:32:26.933Z,2.95
2022-08-28T20:34:55.860Z,4.28
2022-08-28T20:37:24.904Z,2.65
2022-08-28T20:39:57.724Z,4.20
2022-08-28T20:42:26.496Z,2.85
2022-08-28T20:45:00.706Z,7.00
2022-08-28T20:47:29.606Z,2.45
2022-08-28T20:49:58.456Z,2.90
2022-08-28T20:52:27.104Z,2.53
2022-08-28T20:54:58.220Z,1.75
2022-08-28T20:57:27.150Z,4.28
2022-08-28T20:59:56.231Z,3.72
2022-08-28T21:02:25.705Z,2.83
2022-08-28T21:04:54.263Z,1.98
2022-08-28T21:07:23.831Z,2.67
2022-08-28T21:10:05.154Z,2.70
2022-08-28T21:12:37.909Z,2.92
2022-08-28T21:15:07.599Z,3.63
2022-08-28T21:17:36.308Z,3.58
2022-08-28T21:20:07.202Z,3.65
2022-08-28T21:22:36.207Z,2.00
2022-08-28T21:25:05.789Z,3.50
2022-08-28T21:27:34.463Z,4.25
2022-08-28T21:30:05.010Z,2.67
2022-08-28T21:32:34.151Z,2.40
2022-08-28T21:35:03.889Z,3.45
2022-08-28T21:37:32.360Z,2.72
2022-08-28T21:40:01.602Z,1.63
2022-08-28T21:42:30.597Z,5.20
2022-08-28T21:44:59.514Z,2.22
2022-08-28T21:47:29.409Z,2.95
2022-08-28T21:49:58.711Z,1.33
2022-08-28T21:52:28.673Z,1.75
2022-08-28T21:55:00.763Z,1.70
2022-08-28T21:57:29.693Z,2.70
2022-08-28T21:59:58.604Z,3.35
2022-08-28T22:02:27.203Z,1.15
2022-08-28T22:04:57.178Z,2.22
2022-08-28T22:07:25.878Z,1.58
2022-08-28T22:09:54.379Z,1.25
2022-08-28T22:12:25.708Z,3.65
2022-08-28T22:14:54.270Z,1.67
2022-08-28T22:17:22.810Z,2.13
2022-08-28T22:19:51.412Z,3.67
2022-08-28T22:22:39.032Z,3.55
2022-08-28T22:25:08.058Z,1.15
2022-08-28T22:27:36.705Z,2.17
2022-08-28T22:30:05.884Z,2.15
2022-08-28T22:32:34.434Z,2.22
2022-08-28T22:35:03.018Z,1.60
2022-08-28T22:37:33.005Z,2.58
2022-08-28T22:40:01.515Z,2.17
2022-08-28T22:42:30.274Z,2.05
2022-08-28T22:44:59.650Z,1.33
2022-08-28T22:47:28.619Z,2.67
2022-08-28T22:49:58.550Z,1.95
2022-08-28T22:52:27.320Z,2.78
2022-08-28T22:54:57.225Z,2.08
2022-08-28T22:57:25.996Z,1.02
2022-08-28T22:59:54.571Z,1.02
2022-08-28T23:02:27.380Z,1.08
2022-08-28T23:04:55.973Z,1.98
2022-08-28T23:07:24.536Z,1.02
2022-08-28T23:09:53.228Z,1.92
2022-08-28T23:12:23.294Z,2.03
2022-08-28T23:14:52.085Z,1.45
2022-08-28T23:17:20.727Z,1.90
2022-08-28T23:19:49.444Z,0.77
2022-08-28T23:22:18.588Z,3.35
2022-08-28T23:24:48.795Z,1.95
2022-08-28T23:27:35.786Z,2.15
2022-08-28T23:30:06.612Z,0.90
2022-08-28T23:32:35.119Z,2.30
2022-08-28T23:35:07.050Z,1.55
2022-08-28T23:37:36.356Z,1.45
2022-08-28T23:40:05.985Z,3.92
2022-08-28T23:42:34.648Z,3.28
2022-08-28T23:45:05.229Z,1.15
2022-08-28T23:47:40.457Z,2.85
2022-08-28T23:50:10.669Z,1.15
2022-08-28T23:52:39.401Z,1.67
2022-08-28T23:55:08.581Z,3.80
2022-08-28T23:57:38.495Z,1.77
